sensor_id;sensor_type;location;lat;lon;timestamp;P1;durP1;ratioP1;P2;durP2;ratioP2
17949;SDS011;9100;48.700;9.316;2023-07-31T00:00:28;3.1;;;1.7;;
17949;SDS011;9100;48.700;9.316;2023-07-31T00:01:28;3.1;;;1.7;;
17949;SDS011;9100;48.700;9.316;2023-07-31T00:02:28;3.1;;;1.7;;
17949;SDS011;9100;48.700;9.316;2023-07-31T00:03:24;1.9;;;1.5;;
17949;SDS011;9100;48.700;9.316;2023-07-31T00:03:28;1.9;;;1.5;;
17949;SDS011;9100;48.700;9.316;2023-07-31T00:04:28;1.9;;;1.5;;
17949;SDS011;9100;48.700;9.316;2023-07-31T00:05:28;1.9;;;1.5;;
17949;SDS011;9100;48.700;9.316;2023-07-31T00:06:28;1.9;;;1.5;;
17949;SDS011;9100;48.700;9.316;2023-07-31T00:07:28;1.9;;;1.5;;
17949;SDS011;9100;48.700;9.316;2023-07-31T00:08:24;3.6;;;2.2;;
17949;SDS011;9100;48.700;9.316;2023-07-31T00:08:28;3.6;;;2.2;;
17949;SDS011;9100;48.700;9.316;2023-07-31T00:09:28;3.6;;;2.2;;
17949;SDS011;9100;48.700;9.316;2023-07-31T00:10:28;3.6;;;2.2;;
17949;SDS011;9100;48.700;9.316;2023-07-31T00:11:28;3.6;;;2.2;;
17949;SDS011;9100;48.700;9.316;2023-07-31T00:12:28;3.6;;;2.2;;
17949;SDS011;9100;48.700;9.316;2023-07-31T00:13:24;1.7;;;1.3;;
17949;SDS011;9100;48.700;9.316;2023-07-31T00:13:28;1.7;;;1.3;;
17949;SDS011;9100;48.700;9.316;2023-07-31T00:14:28;1.7;;;1.3;;
17949;SDS011;9100;48.700;9.316;2023-07-31T00:15:28;1.7;;;1.3;;
17949;SDS011;9100;48.700;9.316;2023-07-31T00:16:28;1.7;;;1.3;;
17949;SDS011;9100;48.700;9.316;2023-07-31T00:17:28;1.7;;;1.3;;
17949;SDS011;9100;48.700;9.316;2023-07-31T00:18:24;3.8;;;2;;
17949;SDS011;9100;48.700;9.316;2023-07-31T00:18:28;3.8;;;2;;
17949;SDS011;9100;48.700;9.316;2023-07-31T00:19:28;3.8;;;2;;
17949;SDS011;9100;48.700;9.316;2023-07-31T00:20:28;3.8;;;2;;
17949;SDS011;9100;48.700;9.316;2023-07-31T00:21:28;3.8;;;2;;
17949;SDS011;9100;48.700;9.316;2023-07-31T00:22:28;3.8;;;2;;
17949;SDS011;9100;48.700;9.316;2023-07-31T00:23:24;3.7;;;1.7;;
17949;SDS011;9100;48.700;9.316;2023-07-31T00:23:28;3.7;;;1.7;;
17949;SDS011;9100;48.700;9.316;2023-07-31T00:24:28;3.7;;;1.7;;
17949;SDS011;9100;48.700;9.316;2023-07-31T00:25:28;3.7;;;1.7;;
17949;SDS011;9100;48.700;9.316;2023-07-31T00:26:28;3.7;;;1.7;;
17949;SDS011;9100;48.700;9.316;2023-07-31T00:27:28;3.7;;;1.7;;
17949;SDS011;9100;48.700;9.316;2023-07-31T00:28:24;1.8;;;1.6;;
17949;SDS011;9100;48.700;9.316;2023-07-31T00:28:28;1.8;;;1.6;;
17949;SDS011;9100;48.700;9.316;2023-07-31T00:29:28;1.8;;;1.6;;
17949;SDS011;9100;48.700;9.316;2023-07-31T00:30:28;1.8;;;1.6;;
17949;SDS011;9100;48.700;9.316;2023-07-31T00:31:28;1.8;;;1.6;;
17949;SDS011;9100;48.700;9.316;2023-07-31T00:32:28;1.8;;;1.6;;
17949;SDS011;9100;48.700;9.316;2023-07-31T00:33:24;2.5;;;1.6;;
17949;SDS011;9100;48.700;9.316;2023-07-31T00:33:29;2.5;;;1.6;;
17949;SDS011;9100;48.700;9.316;2023-07-31T00:34:28;2.5;;;1.6;;
17949;SDS011;9100;48.700;9.316;2023-07-31T00:35:28;2.5;;;1.6;;
17949;SDS011;9100;48.700;9.316;2023-07-31T00:36:28;2.5;;;1.6;;
17949;SDS011;9100;48.700;9.316;2023-07-31T00:37:28;2.5;;;1.6;;
17949;SDS011;9100;48.700;9.316;2023-07-31T00:38:24;3;;;1.9;;
17949;SDS011;9100;48.700;9.316;2023-07-31T00:38:28;3;;;1.9;;
17949;SDS011;9100;48.700;9.316;2023-07-31T00:39:29;3;;;1.9;;
17949;SDS011;9100;48.700;9.316;2023-07-31T00:40:28;3;;;1.9;;
17949;SDS011;9100;48.700;9.316;2023-07-31T00:41:28;3;;;1.9;;
17949;SDS011;9100;48.700;9.316;2023-07-31T00:42:28;3;;;1.9;;
17949;SDS011;9100;48.700;9.316;2023-07-31T00:43:24;3;;;2;;
17949;SDS011;9100;48.700;9.316;2023-07-31T00:43:28;3;;;2;;
17949;SDS011;9100;48.700;9.316;2023-07-31T00:44:28;3;;;2;;
17949;SDS011;9100;48.700;9.316;2023-07-31T00:45:28;3;;;2;;
17949;SDS011;9100;48.700;9.316;2023-07-31T00:46:28;3;;;2;;
17949;SDS011;9100;48.700;9.316;2023-07-31T00:47:28;3;;;2;;
17949;SDS011;9100;48.700;9.316;2023-07-31T00:48:24;4.1;;;1.6;;
17949;SDS011;9100;48.700;9.316;2023-07-31T00:48:28;4.1;;;1.6;;
17949;SDS011;9100;48.700;9.316;2023-07-31T00:49:28;4.1;;;1.6;;
17949;SDS011;9100;48.700;9.316;2023-07-31T00:50:28;4.1;;;1.6;;
17949;SDS011;9100;48.700;9.316;2023-07-31T00:51:28;4.1;;;1.6;;
17949;SDS011;9100;48.700;9.316;2023-07-31T00:52:28;4.1;;;1.6;;
17949;SDS011;9100;48.700;9.316;2023-07-31T00:53:24;2;;;1.9;;
17949;SDS011;9100;48.700;9.316;2023-07-31T00:53:28;2;;;1.9;;
17949;SDS011;9100;48.700;9.316;2023-07-31T00:54:28;2;;;1.9;;
17949;SDS011;9100;48.700;9.316;2023-07-31T00:55:29;2;;;1.9;;
17949;SDS011;9100;48.700;9.316;2023-07-31T00:56:28;2;;;1.9;;
17949;SDS011;9100;48.700;9.316;2023-07-31T00:57:28;2;;;1.9;;
17949;SDS011;9100;48.700;9.316;2023-07-31T00:58:23;4.8;;;2;;
17949;SDS011;9100;48.700;9.316;2023-07-31T00:58:28;4.8;;;2;;
17949;SDS011;9100;48.700;9.316;2023-07-31T00:59:28;4.8;;;2;;
17949;SDS011;9100;48.700;9.316;2023-07-31T01:00:28;4.8;;;2;;
17949;SDS011;9100;48.700;9.316;2023-07-31T01:01:28;4.8;;;2;;
17949;SDS011;9100;48.700;9.316;2023-07-31T01:02:28;4.8;;;2;;
17949;SDS011;9100;48.700;9.316;2023-07-31T01:03:24;2.1;;;2;;
17949;SDS011;9100;48.700;9.316;2023-07-31T01:03:28;2.1;;;2;;
17949;SDS011;9100;48.700;9.316;2023-07-31T01:04:28;2.1;;;2;;
17949;SDS011;9100;48.700;9.316;2023-07-31T01:05:30;2.1;;;2;;
17949;SDS011;9100;48.700;9.316;2023-07-31T01:06:30;2.1;;;2;;
17949;SDS011;9100;48.700;9.316;2023-07-31T01:07:30;2.1;;;2;;
17949;SDS011;9100;48.700;9.316;2023-07-31T01:08:24;1.7;;;1.6;;
17949;SDS011;9100;48.700;9.316;2023-07-31T01:08:29;1.7;;;1.6;;
17949;SDS011;9100;48.700;9.316;2023-07-31T01:09:29;1.7;;;1.6;;
17949;SDS011;9100;48.700;9.316;2023-07-31T01:10:29;1.7;;;1.6;;
17949;SDS011;9100;48.700;9.316;2023-07-31T01:11:28;1.7;;;1.6;;
17949;SDS011;9100;48.700;9.316;2023-07-31T01:12:28;1.7;;;1.6;;
17949;SDS011;9100;48.700;9.316;2023-07-31T01:13:24;5.4;;;2.2;;
17949;SDS011;9100;48.700;9.316;2023-07-31T01:13:28;5.4;;;2.2;;
17949;SDS011;9100;48.700;9.316;2023-07-31T01:14:28;5.4;;;2.2;;
17949;SDS011;9100;48.700;9.316;2023-07-31T01:15:28;5.4;;;2.2;;
17949;SDS011;9100;48.700;9.316;2023-07-31T01:16:28;5.4;;;2.2;;
17949;SDS011;9100;48.700;9.316;2023-07-31T01:17:28;5.4;;;2.2;;
17949;SDS011;9100;48.700;9.316;2023-07-31T01:18:24;4.8;;;2;;
17949;SDS011;9100;48.700;9.316;2023-07-31T01:18:28;4.8;;;2;;
17949;SDS011;9100;48.700;9.316;2023-07-31T01:19:28;4.8;;;2;;
17949;SDS011;9100;48.700;9.316;2023-07-31T01:20:28;4.8;;;2;;
17949;SDS011;9100;48.700;9.316;2023-07-31T01:21:44;4.8;;;2;;
17949;SDS011;9100;48.700;9.316;2023-07-31T01:22:31;4.8;;;2;;
17949;SDS011;9100;48.700;9.316;2023-07-31T01:23:29;3.7;;;1.7;;
17949;SDS011;9100;48.700;9.316;2023-07-31T01:23:35;3.7;;;1.7;;
17949;SDS011;9100;48.700;9.316;2023-07-31T01:24:30;3.7;;;1.7;;
17949;SDS011;9100;48.700;9.316;2023-07-31T01:25:33;3.7;;;1.7;;
17949;SDS011;9100;48.700;9.316;2023-07-31T01:26:30;3.7;;;1.7;;
17949;SDS011;9100;48.700;9.316;2023-07-31T01:27:28;3.7;;;1.7;;
17949;SDS011;9100;48.700;9.316;2023-07-31T01:28:25;2.8;;;1.4;;
17949;SDS011;9100;48.700;9.316;2023-07-31T01:28:30;2.8;;;1.4;;
17949;SDS011;9100;48.700;9.316;2023-07-31T01:29:31;2.8;;;1.4;;
17949;SDS011;9100;48.700;9.316;2023-07-31T01:30:29;2.8;;;1.4;;
17949;SDS011;9100;48.700;9.316;2023-07-31T01:31:29;2.8;;;1.4;;
17949;SDS011;9100;48.700;9.316;2023-07-31T01:32:28;2.8;;;1.4;;
17949;SDS011;9100;48.700;9.316;2023-07-31T01:33:24;3.7;;;2;;
17949;SDS011;9100;48.700;9.316;2023-07-31T01:33:28;3.7;;;2;;
17949;SDS011;9100;48.700;9.316;2023-07-31T01:34:28;3.7;;;2;;
17949;SDS011;9100;48.700;9.316;2023-07-31T01:35:28;3.7;;;2;;
17949;SDS011;9100;48.700;9.316;2023-07-31T01:36:28;3.7;;;2;;
17949;SDS011;9100;48.700;9.316;2023-07-31T01:37:28;3.7;;;2;;
17949;SDS011;9100;48.700;9.316;2023-07-31T01:38:24;3.3;;;1.8;;
17949;SDS011;9100;48.700;9.316;2023-07-31T01:38:28;3.3;;;1.8;;
17949;SDS011;9100;48.700;9.316;2023-07-31T01:39:28;3.3;;;1.8;;
17949;SDS011;9100;48.700;9.316;2023-07-31T01:40:28;3.3;;;1.8;;
17949;SDS011;9100;48.700;9.316;2023-07-31T01:41:28;3.3;;;1.8;;
17949;SDS011;9100;48.700;9.316;2023-07-31T01:42:28;3.3;;;1.8;;
17949;SDS011;9100;48.700;9.316;2023-07-31T01:43:24;3.7;;;2;;
17949;SDS011;9100;48.700;9.316;2023-07-31T01:43:28;3.7;;;2;;
17949;SDS011;9100;48.700;9.316;2023-07-31T01:44:28;3.7;;;2;;
17949;SDS011;9100;48.700;9.316;2023-07-31T01:45:28;3.7;;;2;;
17949;SDS011;9100;48.700;9.316;2023-07-31T01:46:28;3.7;;;2;;
17949;SDS011;9100;48.700;9.316;2023-07-31T01:47:28;3.7;;;2;;
17949;SDS011;9100;48.700;9.316;2023-07-31T01:48:24;2.9;;;2.2;;
17949;SDS011;9100;48.700;9.316;2023-07-31T01:48:28;2.9;;;2.2;;
17949;SDS011;9100;48.700;9.316;2023-07-31T01:49:28;2.9;;;2.2;;
17949;SDS011;9100;48.700;9.316;2023-07-31T01:50:28;2.9;;;2.2;;
17949;SDS011;9100;48.700;9.316;2023-07-31T01:51:28;2.9;;;2.2;;
17949;SDS011;9100;48.700;9.316;2023-07-31T01:52:28;2.9;;;2.2;;
17949;SDS011;9100;48.700;9.316;2023-07-31T01:53:24;2.6;;;2.4;;
17949;SDS011;9100;48.700;9.316;2023-07-31T01:53:28;2.6;;;2.4;;
17949;SDS011;9100;48.700;9.316;2023-07-31T01:54:28;2.6;;;2.4;;
17949;SDS011;9100;48.700;9.316;2023-07-31T01:55:28;2.6;;;2.4;;
17949;SDS011;9100;48.700;9.316;2023-07-31T01:56:28;2.6;;;2.4;;
17949;SDS011;9100;48.700;9.316;2023-07-31T01:57:28;2.6;;;2.4;;
17949;SDS011;9100;48.700;9.316;2023-07-31T01:58:24;5;;;2.4;;
17949;SDS011;9100;48.700;9.316;2023-07-31T01:58:28;5;;;2.4;;
17949;SDS011;9100;48.700;9.316;2023-07-31T01:59:28;5;;;2.4;;
17949;SDS011;9100;48.700;9.316;2023-07-31T02:00:28;5;;;2.4;;
17949;SDS011;9100;48.700;9.316;2023-07-31T02:01:28;5;;;2.4;;
17949;SDS011;9100;48.700;9.316;2023-07-31T02:02:28;5;;;2.4;;
17949;SDS011;9100;48.700;9.316;2023-07-31T02:03:24;6;;;2;;
17949;SDS011;9100;48.700;9.316;2023-07-31T02:03:28;6;;;2;;
17949;SDS011;9100;48.700;9.316;2023-07-31T02:04:28;6;;;2;;
17949;SDS011;9100;48.700;9.316;2023-07-31T02:05:28;6;;;2;;
17949;SDS011;9100;48.700;9.316;2023-07-31T02:06:28;6;;;2;;
17949;SDS011;9100;48.700;9.316;2023-07-31T02:07:28;6;;;2;;
17949;SDS011;9100;48.700;9.316;2023-07-31T02:08:24;5.2;;;2.3;;
17949;SDS011;9100;48.700;9.316;2023-07-31T02:08:28;5.2;;;2.3;;
17949;SDS011;9100;48.700;9.316;2023-07-31T02:09:28;5.2;;;2.3;;
17949;SDS011;9100;48.700;9.316;2023-07-31T02:10:28;5.2;;;2.3;;
17949;SDS011;9100;48.700;9.316;2023-07-31T02:11:28;5.2;;;2.3;;
17949;SDS011;9100;48.700;9.316;2023-07-31T02:12:28;5.2;;;2.3;;
17949;SDS011;9100;48.700;9.316;2023-07-31T02:13:24;5.7;;;2.3;;
17949;SDS011;9100;48.700;9.316;2023-07-31T02:13:28;5.7;;;2.3;;
17949;SDS011;9100;48.700;9.316;2023-07-31T02:14:28;5.7;;;2.3;;
17949;SDS011;9100;48.700;9.316;2023-07-31T02:15:28;5.7;;;2.3;;
17949;SDS011;9100;48.700;9.316;2023-07-31T02:16:28;5.7;;;2.3;;
17949;SDS011;9100;48.700;9.316;2023-07-31T02:17:28;5.7;;;2.3;;
17949;SDS011;9100;48.700;9.316;2023-07-31T02:18:24;3;;;2.3;;
17949;SDS011;9100;48.700;9.316;2023-07-31T02:18:28;3;;;2.3;;
17949;SDS011;9100;48.700;9.316;2023-07-31T02:19:28;3;;;2.3;;
17949;SDS011;9100;48.700;9.316;2023-07-31T02:20:28;3;;;2.3;;
17949;SDS011;9100;48.700;9.316;2023-07-31T02:21:28;3;;;2.3;;
17949;SDS011;9100;48.700;9.316;2023-07-31T02:22:28;3;;;2.3;;
17949;SDS011;9100;48.700;9.316;2023-07-31T02:23:24;6.9;;;2.5;;
17949;SDS011;9100;48.700;9.316;2023-07-31T02:23:28;6.9;;;2.5;;
17949;SDS011;9100;48.700;9.316;2023-07-31T02:24:28;6.9;;;2.5;;
17949;SDS011;9100;48.700;9.316;2023-07-31T02:25:28;6.9;;;2.5;;
17949;SDS011;9100;48.700;9.316;2023-07-31T02:26:28;6.9;;;2.5;;
17949;SDS011;9100;48.700;9.316;2023-07-31T02:27:28;6.9;;;2.5;;
17949;SDS011;9100;48.700;9.316;2023-07-31T02:28:24;2;;;1.9;;
17949;SDS011;9100;48.700;9.316;2023-07-31T02:28:28;2;;;1.9;;
17949;SDS011;9100;48.700;9.316;2023-07-31T02:29:28;2;;;1.9;;
17949;SDS011;9100;48.700;9.316;2023-07-31T02:30:28;2;;;1.9;;
17949;SDS011;9100;48.700;9.316;2023-07-31T02:31:28;2;;;1.9;;
17949;SDS011;9100;48.700;9.316;2023-07-31T02:32:28;2;;;1.9;;
17949;SDS011;9100;48.700;9.316;2023-07-31T02:33:24;3.9;;;2.2;;
17949;SDS011;9100;48.700;9.316;2023-07-31T02:33:28;3.9;;;2.2;;
17949;SDS011;9100;48.700;9.316;2023-07-31T02:34:28;3.9;;;2.2;;
17949;SDS011;9100;48.700;9.316;2023-07-31T02:35:28;3.9;;;2.2;;
17949;SDS011;9100;48.700;9.316;2023-07-31T02:36:28;3.9;;;2.2;;
17949;SDS011;9100;48.700;9.316;2023-07-31T02:37:28;3.9;;;2.2;;
17949;SDS011;9100;48.700;9.316;2023-07-31T02:38:24;2;;;1.8;;
17949;SDS011;9100;48.700;9.316;2023-07-31T02:38:28;2;;;1.8;;
17949;SDS011;9100;48.700;9.316;2023-07-31T02:39:28;2;;;1.8;;
17949;SDS011;9100;48.700;9.316;2023-07-31T02:40:28;2;;;1.8;;
17949;SDS011;9100;48.700;9.316;2023-07-31T02:41:28;2;;;1.8;;
17949;SDS011;9100;48.700;9.316;2023-07-31T02:42:28;2;;;1.8;;
17949;SDS011;9100;48.700;9.316;2023-07-31T02:43:24;2.2;;;2;;
17949;SDS011;9100;48.700;9.316;2023-07-31T02:43:28;2.2;;;2;;
17949;SDS011;9100;48.700;9.316;2023-07-31T02:44:28;2.2;;;2;;
17949;SDS011;9100;48.700;9.316;2023-07-31T02:45:28;2.2;;;2;;
17949;SDS011;9100;48.700;9.316;2023-07-31T02:46:28;2.2;;;2;;
17949;SDS011;9100;48.700;9.316;2023-07-31T02:47:28;2.2;;;2;;
17949;SDS011;9100;48.700;9.316;2023-07-31T02:48:24;2.1;;;2;;
17949;SDS011;9100;48.700;9.316;2023-07-31T02:48:28;2.1;;;2;;
17949;SDS011;9100;48.700;9.316;2023-07-31T02:49:28;2.1;;;2;;
17949;SDS011;9100;48.700;9.316;2023-07-31T02:50:28;2.1;;;2;;
17949;SDS011;9100;48.700;9.316;2023-07-31T02:51:28;2.1;;;2;;
17949;SDS011;9100;48.700;9.316;2023-07-31T02:52:28;2.1;;;2;;
17949;SDS011;9100;48.700;9.316;2023-07-31T02:53:24;3.7;;;2.1;;
17949;SDS011;9100;48.700;9.316;2023-07-31T02:53:28;3.7;;;2.1;;
17949;SDS011;9100;48.700;9.316;2023-07-31T02:54:28;3.7;;;2.1;;
17949;SDS011;9100;48.700;9.316;2023-07-31T02:55:28;3.7;;;2.1;;
17949;SDS011;9100;48.700;9.316;2023-07-31T02:56:28;3.7;;;2.1;;
17949;SDS011;9100;48.700;9.316;2023-07-31T02:57:28;3.7;;;2.1;;
17949;SDS011;9100;48.700;9.316;2023-07-31T02:58:24;3.1;;;2;;
17949;SDS011;9100;48.700;9.316;2023-07-31T02:58:28;3.1;;;2;;
17949;SDS011;9100;48.700;9.316;2023-07-31T02:59:29;3.1;;;2;;
17949;SDS011;9100;48.700;9.316;2023-07-31T03:00:28;3.1;;;2;;
17949;SDS011;9100;48.700;9.316;2023-07-31T03:01:29;3.1;;;2;;
17949;SDS011;9100;48.700;9.316;2023-07-31T03:02:28;3.1;;;2;;
17949;SDS011;9100;48.700;9.316;2023-07-31T03:03:24;2;;;1.9;;
17949;SDS011;9100;48.700;9.316;2023-07-31T03:03:28;2;;;1.9;;
17949;SDS011;9100;48.700;9.316;2023-07-31T03:04:28;2;;;1.9;;
17949;SDS011;9100;48.700;9.316;2023-07-31T03:05:28;2;;;1.9;;
17949;SDS011;9100;48.700;9.316;2023-07-31T03:06:28;2;;;1.9;;
17949;SDS011;9100;48.700;9.316;2023-07-31T03:07:28;2;;;1.9;;
17949;SDS011;9100;48.700;9.316;2023-07-31T03:08:24;1.8;;;1.7;;
17949;SDS011;9100;48.700;9.316;2023-07-31T03:08:28;1.8;;;1.7;;
17949;SDS011;9100;48.700;9.316;2023-07-31T03:09:28;1.8;;;1.7;;
17949;SDS011;9100;48.700;9.316;2023-07-31T03:10:28;1.8;;;1.7;;
17949;SDS011;9100;48.700;9.316;2023-07-31T03:11:28;1.8;;;1.7;;
17949;SDS011;9100;48.700;9.316;2023-07-31T03:12:28;1.8;;;1.7;;
17949;SDS011;9100;48.700;9.316;2023-07-31T03:13:24;2.1;;;1.7;;
17949;SDS011;9100;48.700;9.316;2023-07-31T03:13:28;2.1;;;1.7;;
17949;SDS011;9100;48.700;9.316;2023-07-31T03:14:28;2.1;;;1.7;;
17949;SDS011;9100;48.700;9.316;2023-07-31T03:15:28;2.1;;;1.7;;
17949;SDS011;9100;48.700;9.316;2023-07-31T03:16:28;2.1;;;1.7;;
17949;SDS011;9100;48.700;9.316;2023-07-31T03:17:28;2.1;;;1.7;;
17949;SDS011;9100;48.700;9.316;2023-07-31T03:18:24;5.7;;;2.6;;
17949;SDS011;9100;48.700;9.316;2023-07-31T03:18:28;5.7;;;2.6;;
17949;SDS011;9100;48.700;9.316;2023-07-31T03:19:30;5.7;;;2.6;;
17949;SDS011;9100;48.700;9.316;2023-07-31T03:20:28;5.7;;;2.6;;
17949;SDS011;9100;48.700;9.316;2023-07-31T03:21:28;5.7;;;2.6;;
17949;SDS011;9100;48.700;9.316;2023-07-31T03:22:28;5.7;;;2.6;;
17949;SDS011;9100;48.700;9.316;2023-07-31T03:23:24;3.4;;;2.4;;
17949;SDS011;9100;48.700;9.316;2023-07-31T03:23:28;3.4;;;2.4;;
17949;SDS011;9100;48.700;9.316;2023-07-31T03:24:28;3.4;;;2.4;;
17949;SDS011;9100;48.700;9.316;2023-07-31T03:25:28;3.4;;;2.4;;
17949;SDS011;9100;48.700;9.316;2023-07-31T03:26:28;3.4;;;2.4;;
17949;SDS011;9100;48.700;9.316;2023-07-31T03:27:28;3.4;;;2.4;;
17949;SDS011;9100;48.700;9.316;2023-07-31T03:28:24;2.3;;;2.1;;
17949;SDS011;9100;48.700;9.316;2023-07-31T03:28:28;2.3;;;2.1;;
17949;SDS011;9100;48.700;9.316;2023-07-31T03:29:28;2.3;;;2.1;;
17949;SDS011;9100;48.700;9.316;2023-07-31T03:30:28;2.3;;;2.1;;
17949;SDS011;9100;48.700;9.316;2023-07-31T03:31:28;2.3;;;2.1;;
17949;SDS011;9100;48.700;9.316;2023-07-31T03:32:28;2.3;;;2.1;;
17949;SDS011;9100;48.700;9.316;2023-07-31T03:33:24;2.8;;;2.5;;
17949;SDS011;9100;48.700;9.316;2023-07-31T03:33:28;2.8;;;2.5;;
17949;SDS011;9100;48.700;9.316;2023-07-31T03:34:28;2.8;;;2.5;;
17949;SDS011;9100;48.700;9.316;2023-07-31T03:35:28;2.8;;;2.5;;
17949;SDS011;9100;48.700;9.316;2023-07-31T03:36:28;2.8;;;2.5;;
17949;SDS011;9100;48.700;9.316;2023-07-31T03:37:28;2.8;;;2.5;;
17949;SDS011;9100;48.700;9.316;2023-07-31T03:38:24;6.2;;;2.6;;
17949;SDS011;9100;48.700;9.316;2023-07-31T03:38:28;6.2;;;2.6;;
17949;SDS011;9100;48.700;9.316;2023-07-31T03:39:28;6.2;;;2.6;;
17949;SDS011;9100;48.700;9.316;2023-07-31T03:40:28;6.2;;;2.6;;
17949;SDS011;9100;48.700;9.316;2023-07-31T03:41:28;6.2;;;2.6;;
17949;SDS011;9100;48.700;9.316;2023-07-31T03:42:28;6.2;;;2.6;;
17949;SDS011;9100;48.700;9.316;2023-07-31T03:43:24;2.8;;;1.9;;
17949;SDS011;9100;48.700;9.316;2023-07-31T03:43:28;2.8;;;1.9;;
17949;SDS011;9100;48.700;9.316;2023-07-31T03:44:28;2.8;;;1.9;;
17949;SDS011;9100;48.700;9.316;2023-07-31T03:45:28;2.8;;;1.9;;
17949;SDS011;9100;48.700;9.316;2023-07-31T03:46:28;2.8;;;1.9;;
17949;SDS011;9100;48.700;9.316;2023-07-31T03:47:28;2.8;;;1.9;;
17949;SDS011;9100;48.700;9.316;2023-07-31T03:48:24;1.9;;;1.8;;
17949;SDS011;9100;48.700;9.316;2023-07-31T03:48:28;1.9;;;1.8;;
17949;SDS011;9100;48.700;9.316;2023-07-31T03:49:28;1.9;;;1.8;;
17949;SDS011;9100;48.700;9.316;2023-07-31T03:50:28;1.9;;;1.8;;
17949;SDS011;9100;48.700;9.316;2023-07-31T03:51:28;1.9;;;1.8;;
17949;SDS011;9100;48.700;9.316;2023-07-31T03:52:28;1.9;;;1.8;;
17949;SDS011;9100;48.700;9.316;2023-07-31T03:53:24;3.2;;;2.1;;
17949;SDS011;9100;48.700;9.316;2023-07-31T03:53:28;3.2;;;2.1;;
17949;SDS011;9100;48.700;9.316;2023-07-31T03:54:28;3.2;;;2.1;;
17949;SDS011;9100;48.700;9.316;2023-07-31T03:55:28;3.2;;;2.1;;
17949;SDS011;9100;48.700;9.316;2023-07-31T03:56:28;3.2;;;2.1;;
17949;SDS011;9100;48.700;9.316;2023-07-31T03:57:28;3.2;;;2.1;;
17949;SDS011;9100;48.700;9.316;2023-07-31T03:58:24;2.7;;;2.3;;
17949;SDS011;9100;48.700;9.316;2023-07-31T03:58:28;2.7;;;2.3;;
17949;SDS011;9100;48.700;9.316;2023-07-31T03:59:28;2.7;;;2.3;;
17949;SDS011;9100;48.700;9.316;2023-07-31T04:00:28;2.7;;;2.3;;
17949;SDS011;9100;48.700;9.316;2023-07-31T04:01:28;2.7;;;2.3;;
17949;SDS011;9100;48.700;9.316;2023-07-31T04:02:28;2.7;;;2.3;;
17949;SDS011;9100;48.700;9.316;2023-07-31T04:03:24;3;;;2.1;;
17949;SDS011;9100;48.700;9.316;2023-07-31T04:03:28;3;;;2.1;;
17949;SDS011;9100;48.700;9.316;2023-07-31T04:04:28;3;;;2.1;;
17949;SDS011;9100;48.700;9.316;2023-07-31T04:05:29;3;;;2.1;;
17949;SDS011;9100;48.700;9.316;2023-07-31T04:06:28;3;;;2.1;;
17949;SDS011;9100;48.700;9.316;2023-07-31T04:07:28;3;;;2.1;;
17949;SDS011;9100;48.700;9.316;2023-07-31T04:08:24;2.8;;;1.9;;
17949;SDS011;9100;48.700;9.316;2023-07-31T04:08:28;2.8;;;1.9;;
17949;SDS011;9100;48.700;9.316;2023-07-31T04:09:28;2.8;;;1.9;;
17949;SDS011;9100;48.700;9.316;2023-07-31T04:10:28;2.8;;;1.9;;
17949;SDS011;9100;48.700;9.316;2023-07-31T04:11:28;2.8;;;1.9;;
17949;SDS011;9100;48.700;9.316;2023-07-31T04:12:28;2.8;;;1.9;;
17949;SDS011;9100;48.700;9.316;2023-07-31T04:13:24;4.9;;;2.1;;
17949;SDS011;9100;48.700;9.316;2023-07-31T04:13:29;4.9;;;2.1;;
17949;SDS011;9100;48.700;9.316;2023-07-31T04:14:28;4.9;;;2.1;;
17949;SDS011;9100;48.700;9.316;2023-07-31T04:15:28;4.9;;;2.1;;
17949;SDS011;9100;48.700;9.316;2023-07-31T04:16:28;4.9;;;2.1;;
17949;SDS011;9100;48.700;9.316;2023-07-31T04:17:28;4.9;;;2.1;;
17949;SDS011;9100;48.700;9.316;2023-07-31T04:18:24;4.5;;;2.2;;
17949;SDS011;9100;48.700;9.316;2023-07-31T04:18:28;4.5;;;2.2;;
17949;SDS011;9100;48.700;9.316;2023-07-31T04:19:28;4.5;;;2.2;;
17949;SDS011;9100;48.700;9.316;2023-07-31T04:20:28;4.5;;;2.2;;
17949;SDS011;9100;48.700;9.316;2023-07-31T04:21:28;4.5;;;2.2;;
17949;SDS011;9100;48.700;9.316;2023-07-31T04:22:28;4.5;;;2.2;;
17949;SDS011;9100;48.700;9.316;2023-07-31T04:23:24;2.9;;;2.6;;
17949;SDS011;9100;48.700;9.316;2023-07-31T04:23:28;2.9;;;2.6;;
17949;SDS011;9100;48.700;9.316;2023-07-31T04:24:28;2.9;;;2.6;;
17949;SDS011;9100;48.700;9.316;2023-07-31T04:25:28;2.9;;;2.6;;
17949;SDS011;9100;48.700;9.316;2023-07-31T04:26:28;2.9;;;2.6;;
17949;SDS011;9100;48.700;9.316;2023-07-31T04:27:28;2.9;;;2.6;;
17949;SDS011;9100;48.700;9.316;2023-07-31T04:28:24;3.5;;;2.2;;
17949;SDS011;9100;48.700;9.316;2023-07-31T04:28:28;3.5;;;2.2;;
17949;SDS011;9100;48.700;9.316;2023-07-31T04:29:28;3.5;;;2.2;;
17949;SDS011;9100;48.700;9.316;2023-07-31T04:30:28;3.5;;;2.2;;
17949;SDS011;9100;48.700;9.316;2023-07-31T04:31:29;3.5;;;2.2;;
17949;SDS011;9100;48.700;9.316;2023-07-31T04:32:29;3.5;;;2.2;;
17949;SDS011;9100;48.700;9.316;2023-07-31T04:33:24;3.9;;;2.2;;
17949;SDS011;9100;48.700;9.316;2023-07-31T04:33:28;3.9;;;2.2;;
17949;SDS011;9100;48.700;9.316;2023-07-31T04:34:28;3.9;;;2.2;;
17949;SDS011;9100;48.700;9.316;2023-07-31T04:35:28;3.9;;;2.2;;
17949;SDS011;9100;48.700;9.316;2023-07-31T04:36:28;3.9;;;2.2;;
17949;SDS011;9100;48.700;9.316;2023-07-31T04:37:28;3.9;;;2.2;;
17949;SDS011;9100;48.700;9.316;2023-07-31T04:38:24;3.6;;;2.4;;
17949;SDS011;9100;48.700;9.316;2023-07-31T04:38:28;3.6;;;2.4;;
17949;SDS011;9100;48.700;9.316;2023-07-31T04:39:28;3.6;;;2.4;;
17949;SDS011;9100;48.700;9.316;2023-07-31T04:40:28;3.6;;;2.4;;
17949;SDS011;9100;48.700;9.316;2023-07-31T04:41:28;3.6;;;2.4;;
17949;SDS011;9100;48.700;9.316;2023-07-31T04:42:28;3.6;;;2.4;;
17949;SDS011;9100;48.700;9.316;2023-07-31T04:43:24;2.2;;;2;;
17949;SDS011;9100;48.700;9.316;2023-07-31T04:43:28;2.2;;;2;;
17949;SDS011;9100;48.700;9.316;2023-07-31T04:44:28;2.2;;;2;;
17949;SDS011;9100;48.700;9.316;2023-07-31T04:45:28;2.2;;;2;;
17949;SDS011;9100;48.700;9.316;2023-07-31T04:46:28;2.2;;;2;;
17949;SDS011;9100;48.700;9.316;2023-07-31T04:47:28;2.2;;;2;;
17949;SDS011;9100;48.700;9.316;2023-07-31T04:48:24;3.2;;;2;;
17949;SDS011;9100;48.700;9.316;2023-07-31T04:48:28;3.2;;;2;;
17949;SDS011;9100;48.700;9.316;2023-07-31T04:49:28;3.2;;;2;;
17949;SDS011;9100;48.700;9.316;2023-07-31T04:50:28;3.2;;;2;;
17949;SDS011;9100;48.700;9.316;2023-07-31T04:51:28;3.2;;;2;;
17949;SDS011;9100;48.700;9.316;2023-07-31T04:52:28;3.2;;;2;;
17949;SDS011;9100;48.700;9.316;2023-07-31T04:53:24;2.7;;;2.2;;
17949;SDS011;9100;48.700;9.316;2023-07-31T04:53:28;2.7;;;2.2;;
17949;SDS011;9100;48.700;9.316;2023-07-31T04:54:28;2.7;;;2.2;;
17949;SDS011;9100;48.700;9.316;2023-07-31T04:55:28;2.7;;;2.2;;
17949;SDS011;9100;48.700;9.316;2023-07-31T04:56:28;2.7;;;2.2;;
17949;SDS011;9100;48.700;9.316;2023-07-31T04:57:28;2.7;;;2.2;;
17949;SDS011;9100;48.700;9.316;2023-07-31T04:58:24;2.1;;;1.9;;
17949;SDS011;9100;48.700;9.316;2023-07-31T04:58:28;2.1;;;1.9;;
17949;SDS011;9100;48.700;9.316;2023-07-31T04:59:28;2.1;;;1.9;;
17949;SDS011;9100;48.700;9.316;2023-07-31T05:00:28;2.1;;;1.9;;
17949;SDS011;9100;48.700;9.316;2023-07-31T05:01:28;2.1;;;1.9;;
17949;SDS011;9100;48.700;9.316;2023-07-31T05:02:28;2.1;;;1.9;;
17949;SDS011;9100;48.700;9.316;2023-07-31T05:03:24;3.8;;;1.9;;
17949;SDS011;9100;48.700;9.316;2023-07-31T05:03:28;3.8;;;1.9;;
17949;SDS011;9100;48.700;9.316;2023-07-31T05:04:28;3.8;;;1.9;;
17949;SDS011;9100;48.700;9.316;2023-07-31T05:05:28;3.8;;;1.9;;
17949;SDS011;9100;48.700;9.316;2023-07-31T05:06:28;3.8;;;1.9;;
17949;SDS011;9100;48.700;9.316;2023-07-31T05:07:28;3.8;;;1.9;;
17949;SDS011;9100;48.700;9.316;2023-07-31T05:08:24;3.8;;;2.8;;
17949;SDS011;9100;48.700;9.316;2023-07-31T05:08:28;3.8;;;2.8;;
17949;SDS011;9100;48.700;9.316;2023-07-31T05:09:28;3.8;;;2.8;;
17949;SDS011;9100;48.700;9.316;2023-07-31T05:10:28;3.8;;;2.8;;
17949;SDS011;9100;48.700;9.316;2023-07-31T05:11:28;3.8;;;2.8;;
17949;SDS011;9100;48.700;9.316;2023-07-31T05:12:28;3.8;;;2.8;;
17949;SDS011;9100;48.700;9.316;2023-07-31T05:13:24;5.5;;;2.6;;
17949;SDS011;9100;48.700;9.316;2023-07-31T05:13:28;5.5;;;2.6;;
17949;SDS011;9100;48.700;9.316;2023-07-31T05:14:28;5.5;;;2.6;;
17949;SDS011;9100;48.700;9.316;2023-07-31T05:15:28;5.5;;;2.6;;
17949;SDS011;9100;48.700;9.316;2023-07-31T05:16:28;5.5;;;2.6;;
17949;SDS011;9100;48.700;9.316;2023-07-31T05:17:28;5.5;;;2.6;;
17949;SDS011;9100;48.700;9.316;2023-07-31T05:18:24;3.3;;;2.3;;
17949;SDS011;9100;48.700;9.316;2023-07-31T05:18:28;3.3;;;2.3;;
17949;SDS011;9100;48.700;9.316;2023-07-31T05:19:28;3.3;;;2.3;;